sensor_id;sensor_type;location;lat;lon;timestamp;temperature;humidity
12568;DHT22;6349;50.904;6.136;2023-01-29T00:00:39;-1.30;99.90
12568;DHT22;6349;50.904;6.136;2023-01-29T00:02:39;-1.30;99.90
12568;DHT22;6349;50.904;6.136;2023-01-29T00:04:40;-1.40;99.90
12568;DHT22;6349;50.904;6.136;2023-01-29T00:06:41;-1.40;99.90
12568;DHT22;6349;50.904;6.136;2023-01-29T00:08:41;-1.40;99.90
12568;DHT22;6349;50.904;6.136;2023-01-29T00:10:42;-1.50;99.90
12568;DHT22;6349;50.904;6.136;2023-01-29T00:12:43;-1.50;99.90
12568;DHT22;6349;50.904;6.136;2023-01-29T00:14:43;-1.50;99.90
12568;DHT22;6349;50.904;6.136;2023-01-29T00:16:44;-1.70;99.90
12568;DHT22;6349;50.904;6.136;2023-01-29T00:18:45;-1.50;99.90
12568;DHT22;6349;50.904;6.136;2023-01-29T00:20:45;-1.60;99.90
12568;DHT22;6349;50.904;6.136;2023-01-29T00:22:46;-1.60;99.90
12568;DHT22;6349;50.904;6.136;2023-01-29T00:24:48;-1.50;99.90
12568;DHT22;6349;50.904;6.136;2023-01-29T00:26:48;-1.50;99.90
12568;DHT22;6349;50.904;6.136;2023-01-29T00:28:49;-1.60;99.90
12568;DHT22;6349;50.904;6.136;2023-01-29T00:30:51;-1.60;99.90
12568;DHT22;6349;50.904;6.136;2023-01-29T00:32:51;-1.60;99.90
12568;DHT22;6349;50.904;6.136;2023-01-29T00:34:53;-1.60;99.90
12568;DHT22;6349;50.904;6.136;2023-01-29T00:36:53;-1.50;99.90
12568;DHT22;6349;50.904;6.136;2023-01-29T00:39:04;-1.50;99.90
12568;DHT22;6349;50.904;6.136;2023-01-29T00:41:13;-1.50;99.90
12568;DHT22;6349;50.904;6.136;2023-01-29T00:43:34;-1.50;99.90
12568;DHT22;6349;50.904;6.136;2023-01-29T00:45:54;-1.60;99.90
12568;DHT22;6349;50.904;6.136;2023-01-29T00:47:55;-1.50;99.90
12568;DHT22;6349;50.904;6.136;2023-01-29T00:49:56;-1.50;99.90
12568;DHT22;6349;50.904;6.136;2023-01-29T00:51:56;-1.50;99.90
12568;DHT22;6349;50.904;6.136;2023-01-29T00:54:17;-1.50;99.90
12568;DHT22;6349;50.904;6.136;2023-01-29T00:56:18;-1.40;99.90
12568;DHT22;6349;50.904;6.136;2023-01-29T00:58:18;-1.40;99.90
12568;DHT22;6349;50.904;6.136;2023-01-29T01:00:21;-1.40;99.90
12568;DHT22;6349;50.904;6.136;2023-01-29T01:02:25;-1.30;99.90
12568;DHT22;6349;50.904;6.136;2023-01-29T01:04:46;-1.30;99.90
12568;DHT22;6349;50.904;6.136;2023-01-29T01:06:46;-1.20;99.90
12568;DHT22;6349;50.904;6.136;2023-01-29T01:08:47;-1.20;99.90
12568;DHT22;6349;50.904;6.136;2023-01-29T01:11:08;-1.10;99.90
12568;DHT22;6349;50.904;6.136;2023-01-29T01:13:08;-1.10;99.90
12568;DHT22;6349;50.904;6.136;2023-01-29T01:15:09;-0.90;99.90
12568;DHT22;6349;50.904;6.136;2023-01-29T01:17:10;-0.80;99.90
12568;DHT22;6349;50.904;6.136;2023-01-29T01:19:11;-0.70;99.90
12568;DHT22;6349;50.904;6.136;2023-01-29T01:21:12;-0.70;99.90
12568;DHT22;6349;50.904;6.136;2023-01-29T01:23:13;-0.70;99.90
12568;DHT22;6349;50.904;6.136;2023-01-29T01:25:14;-0.70;99.90
12568;DHT22;6349;50.904;6.136;2023-01-29T01:27:15;-0.60;99.90
12568;DHT22;6349;50.904;6.136;2023-01-29T01:29:15;-0.60;99.90
12568;DHT22;6349;50.904;6.136;2023-01-29T01:31:16;-0.50;99.90
12568;DHT22;6349;50.904;6.136;2023-01-29T01:33:17;-0.50;99.90
12568;DHT22;6349;50.904;6.136;2023-01-29T01:35:17;-0.50;99.90
12568;DHT22;6349;50.904;6.136;2023-01-29T01:37:18;-0.50;99.90
12568;DHT22;6349;50.904;6.136;2023-01-29T01:39:19;-0.50;99.90
12568;DHT22;6349;50.904;6.136;2023-01-29T01:41:21;-0.60;99.90
12568;DHT22;6349;50.904;6.136;2023-01-29T01:43:23;-0.70;99.90
12568;DHT22;6349;50.904;6.136;2023-01-29T01:45:27;-0.80;99.90
12568;DHT22;6349;50.904;6.136;2023-01-29T01:47:34;-1.00;99.90
12568;DHT22;6349;50.904;6.136;2023-01-29T01:49:35;-1.10;99.90
12568;DHT22;6349;50.904;6.136;2023-01-29T01:51:41;-1.20;99.90
12568;DHT22;6349;50.904;6.136;2023-01-29T01:53:49;-1.30;99.90
12568;DHT22;6349;50.904;6.136;2023-01-29T01:55:55;-1.50;99.90
12568;DHT22;6349;50.904;6.136;2023-01-29T01:58:03;-1.50;99.90
12568;DHT22;6349;50.904;6.136;2023-01-29T02:00:08;-1.60;99.90
12568;DHT22;6349;50.904;6.136;2023-01-29T02:02:12;-1.70;99.90
12568;DHT22;6349;50.904;6.136;2023-01-29T02:04:33;-1.70;99.90
12568;DHT22;6349;50.904;6.136;2023-01-29T02:06:55;-1.80;99.90
12568;DHT22;6349;50.904;6.136;2023-01-29T02:09:20;-2.00;99.90
12568;DHT22;6349;50.904;6.136;2023-01-29T02:11:38;-1.80;99.90
12568;DHT22;6349;50.904;6.136;2023-01-29T02:13:39;-1.70;99.90
12568;DHT22;6349;50.904;6.136;2023-01-29T02:15:42;-1.70;99.90
12568;DHT22;6349;50.904;6.136;2023-01-29T02:17:46;-1.70;99.90
12568;DHT22;6349;50.904;6.136;2023-01-29T02:20:11;-1.80;99.90
12568;DHT22;6349;50.904;6.136;2023-01-29T02:27:36;-1.90;99.90
12568;DHT22;6349;50.904;6.136;2023-01-29T02:30:02;-2.00;99.90
12568;DHT22;6349;50.904;6.136;2023-01-29T02:32:29;-2.00;99.90
12568;DHT22;6349;50.904;6.136;2023-01-29T02:34:41;-2.00;99.90
12568;DHT22;6349;50.904;6.136;2023-01-29T02:37:08;-2.10;99.90
12568;DHT22;6349;50.904;6.136;2023-01-29T02:39:32;-2.00;99.90
12568;DHT22;6349;50.904;6.136;2023-01-29T02:41:41;-2.00;99.90
12568;DHT22;6349;50.904;6.136;2023-01-29T02:43:54;-2.00;99.90
12568;DHT22;6349;50.904;6.136;2023-01-29T02:46:52;-1.90;99.90
12568;DHT22;6349;50.904;6.136;2023-01-29T02:48:44;-1.80;99.90
12568;DHT22;6349;50.904;6.136;2023-01-29T02:51:12;-1.60;99.90
12568;DHT22;6349;50.904;6.136;2023-01-29T02:53:23;-1.40;99.90
12568;DHT22;6349;50.904;6.136;2023-01-29T02:55:34;-1.20;99.90
12568;DHT22;6349;50.904;6.136;2023-01-29T02:57:38;-1.10;99.90
12568;DHT22;6349;50.904;6.136;2023-01-29T02:59:53;-0.90;99.90
12568;DHT22;6349;50.904;6.136;2023-01-29T03:02:00;-1.00;99.90
12568;DHT22;6349;50.904;6.136;2023-01-29T03:04:08;-1.00;99.90
12568;DHT22;6349;50.904;6.136;2023-01-29T03:06:31;-1.00;99.90
12568;DHT22;6349;50.904;6.136;2023-01-29T03:08:39;-1.10;99.90
12568;DHT22;6349;50.904;6.136;2023-01-29T03:10:51;-1.10;99.90
12568;DHT22;6349;50.904;6.136;2023-01-29T03:12:58;-1.20;99.90
12568;DHT22;6349;50.904;6.136;2023-01-29T03:15:08;-1.30;99.90
12568;DHT22;6349;50.904;6.136;2023-01-29T03:17:11;-1.40;99.90
12568;DHT22;6349;50.904;6.136;2023-01-29T03:19:18;-1.50;99.90
12568;DHT22;6349;50.904;6.136;2023-01-29T03:21:28;-1.60;99.90
12568;DHT22;6349;50.904;6.136;2023-01-29T03:23:51;-1.70;99.90
12568;DHT22;6349;50.904;6.136;2023-01-29T03:26:14;-1.80;99.90
12568;DHT22;6349;50.904;6.136;2023-01-29T03:28:37;-1.80;99.90
12568;DHT22;6349;50.904;6.136;2023-01-29T03:31:03;-1.90;99.90
12568;DHT22;6349;50.904;6.136;2023-01-29T03:33:25;-1.90;99.90
12568;DHT22;6349;50.904;6.136;2023-01-29T03:35:30;-1.90;99.90
12568;DHT22;6349;50.904;6.136;2023-01-29T03:37:42;-2.00;99.90
12568;DHT22;6349;50.904;6.136;2023-01-29T03:39:45;-2.00;99.90
12568;DHT22;6349;50.904;6.136;2023-01-29T03:42:01;-2.00;99.90
12568;DHT22;6349;50.904;6.136;2023-01-29T03:44:14;-2.00;99.90
12568;DHT22;6349;50.904;6.136;2023-01-29T03:46:37;-2.00;99.90
12568;DHT22;6349;50.904;6.136;2023-01-29T03:56:25;-1.70;99.90
12568;DHT22;6349;50.904;6.136;2023-01-29T04:00:59;-1.80;99.90
12568;DHT22;6349;50.904;6.136;2023-01-29T04:03:11;-1.70;99.90
12568;DHT22;6349;50.904;6.136;2023-01-29T04:05:19;-1.70;99.90
12568;DHT22;6349;50.904;6.136;2023-01-29T04:07:20;-1.60;99.90
12568;DHT22;6349;50.904;6.136;2023-01-29T04:09:30;-1.50;99.90
12568;DHT22;6349;50.904;6.136;2023-01-29T04:11:35;-1.30;99.90
12568;DHT22;6349;50.904;6.136;2023-01-29T04:13:37;-1.40;99.90
12568;DHT22;6349;50.904;6.136;2023-01-29T04:15:44;-1.30;99.90
12568;DHT22;6349;50.904;6.136;2023-01-29T04:17:49;-1.40;99.90
12568;DHT22;6349;50.904;6.136;2023-01-29T04:19:51;-1.50;99.90
12568;DHT22;6349;50.904;6.136;2023-01-29T04:22:01;-1.40;99.90
12568;DHT22;6349;50.904;6.136;2023-01-29T04:24:04;-1.40;99.90
12568;DHT22;6349;50.904;6.136;2023-01-29T04:31:07;-1.50;99.90
12568;DHT22;6349;50.904;6.136;2023-01-29T04:35:53;-1.60;99.90
12568;DHT22;6349;50.904;6.136;2023-01-29T04:38:27;-1.70;99.90
12568;DHT22;6349;50.904;6.136;2023-01-29T04:43:14;-1.80;99.90
12568;DHT22;6349;50.904;6.136;2023-01-29T04:45:27;-1.90;99.90
12568;DHT22;6349;50.904;6.136;2023-01-29T04:50:12;-2.00;99.90
12568;DHT22;6349;50.904;6.136;2023-01-29T04:52:29;-2.10;99.90
12568;DHT22;6349;50.904;6.136;2023-01-29T04:59:29;-2.10;99.90
12568;DHT22;6349;50.904;6.136;2023-01-29T05:01:34;-2.00;99.90
12568;DHT22;6349;50.904;6.136;2023-01-29T05:03:37;-2.00;99.90
12568;DHT22;6349;50.904;6.136;2023-01-29T05:05:44;-1.90;99.90
12568;DHT22;6349;50.904;6.136;2023-01-29T05:07:47;-1.90;99.90
12568;DHT22;6349;50.904;6.136;2023-01-29T05:09:49;-1.90;99.90
12568;DHT22;6349;50.904;6.136;2023-01-29T05:11:52;-1.90;99.90
12568;DHT22;6349;50.904;6.136;2023-01-29T05:13:55;-1.90;99.90
12568;DHT22;6349;50.904;6.136;2023-01-29T05:16:34;-1.80;99.90
12568;DHT22;6349;50.904;6.136;2023-01-29T05:18:22;-1.80;99.90
12568;DHT22;6349;50.904;6.136;2023-01-29T05:20:25;-1.80;99.90
12568;DHT22;6349;50.904;6.136;2023-01-29T05:22:28;-1.80;99.90
12568;DHT22;6349;50.904;6.136;2023-01-29T05:24:31;-1.70;99.90
12568;DHT22;6349;50.904;6.136;2023-01-29T05:26:33;-1.80;99.90
12568;DHT22;6349;50.904;6.136;2023-01-29T05:28:56;-1.80;99.90
12568;DHT22;6349;50.904;6.136;2023-01-29T05:30:58;-1.70;99.90
12568;DHT22;6349;50.904;6.136;2023-01-29T05:32:59;-1.70;99.90
12568;DHT22;6349;50.904;6.136;2023-01-29T05:35:01;-1.70;99.90
12568;DHT22;6349;50.904;6.136;2023-01-29T05:37:03;-1.70;99.90
12568;DHT22;6349;50.904;6.136;2023-01-29T05:39:04;-1.60;99.90
12568;DHT22;6349;50.904;6.136;2023-01-29T05:41:05;-1.70;99.90
12568;DHT22;6349;50.904;6.136;2023-01-29T05:43:24;-1.70;99.90
12568;DHT22;6349;50.904;6.136;2023-01-29T05:45:25;-1.80;99.90
12568;DHT22;6349;50.904;6.136;2023-01-29T05:47:27;-1.80;99.90
12568;DHT22;6349;50.904;6.136;2023-01-29T05:49:29;-1.90;99.90
12568;DHT22;6349;50.904;6.136;2023-01-29T05:51:30;-1.90;99.90
12568;DHT22;6349;50.904;6.136;2023-01-29T05:53:32;-1.90;99.90
12568;DHT22;6349;50.904;6.136;2023-01-29T05:55:45;-1.90;99.90
12568;DHT22;6349;50.904;6.136;2023-01-29T05:57:50;-1.90;99.90
12568;DHT22;6349;50.904;6.136;2023-01-29T05:59:53;-1.90;99.90
12568;DHT22;6349;50.904;6.136;2023-01-29T06:01:54;-2.00;99.90
12568;DHT22;6349;50.904;6.136;2023-01-29T06:03:56;-2.00;99.90
12568;DHT22;6349;50.904;6.136;2023-01-29T06:06:00;-1.90;99.90
12568;DHT22;6349;50.904;6.136;2023-01-29T06:08:02;-1.90;99.90
12568;DHT22;6349;50.904;6.136;2023-01-29T06:10:04;-1.90;99.90
12568;DHT22;6349;50.904;6.136;2023-01-29T06:12:06;-2.00;99.90
12568;DHT22;6349;50.904;6.136;2023-01-29T06:14:08;-2.00;99.90
12568;DHT22;6349;50.904;6.136;2023-01-29T06:16:12;-2.00;99.90
12568;DHT22;6349;50.904;6.136;2023-01-29T06:18:14;-1.90;99.90
12568;DHT22;6349;50.904;6.136;2023-01-29T06:20:15;-1.90;99.90
12568;DHT22;6349;50.904;6.136;2023-01-29T06:22:16;-1.90;99.90
12568;DHT22;6349;50.904;6.136;2023-01-29T06:24:18;-1.80;99.90
12568;DHT22;6349;50.904;6.136;2023-01-29T06:26:20;-1.80;99.90
12568;DHT22;6349;50.904;6.136;2023-01-29T06:28:22;-1.70;99.90
12568;DHT22;6349;50.904;6.136;2023-01-29T06:30:27;-1.60;99.90
12568;DHT22;6349;50.904;6.136;2023-01-29T06:32:29;-1.50;99.90
12568;DHT22;6349;50.904;6.136;2023-01-29T06:34:29;-1.50;99.90
12568;DHT22;6349;50.904;6.136;2023-01-29T06:36:31;-1.40;99.90
12568;DHT22;6349;50.904;6.136;2023-01-29T06:38:32;-1.40;99.90
12568;DHT22;6349;50.904;6.136;2023-01-29T06:40:34;-1.20;99.90
12568;DHT22;6349;50.904;6.136;2023-01-29T06:42:36;-1.20;99.90
12568;DHT22;6349;50.904;6.136;2023-01-29T06:44:38;-1.10;99.90
12568;DHT22;6349;50.904;6.136;2023-01-29T06:46:40;-1.00;99.90
12568;DHT22;6349;50.904;6.136;2023-01-29T06:48:42;-1.00;99.90
12568;DHT22;6349;50.904;6.136;2023-01-29T06:50:44;-0.90;99.90
12568;DHT22;6349;50.904;6.136;2023-01-29T06:52:46;-0.90;99.90
12568;DHT22;6349;50.904;6.136;2023-01-29T06:54:48;-0.80;99.90
12568;DHT22;6349;50.904;6.136;2023-01-29T06:56:51;-0.80;99.90
12568;DHT22;6349;50.904;6.136;2023-01-29T06:58:52;-0.80;99.90
12568;DHT22;6349;50.904;6.136;2023-01-29T07:01:04;-0.80;99.90
12568;DHT22;6349;50.904;6.136;2023-01-29T07:03:07;-0.80;99.90
12568;DHT22;6349;50.904;6.136;2023-01-29T07:05:10;-0.90;99.90
12568;DHT22;6349;50.904;6.136;2023-01-29T07:07:11;-0.90;99.90
12568;DHT22;6349;50.904;6.136;2023-01-29T07:09:13;-1.00;99.90
12568;DHT22;6349;50.904;6.136;2023-01-29T07:11:15;-1.00;99.90
12568;DHT22;6349;50.904;6.136;2023-01-29T07:13:17;-1.00;99.90
12568;DHT22;6349;50.904;6.136;2023-01-29T07:15:18;-1.00;99.90
12568;DHT22;6349;50.904;6.136;2023-01-29T07:17:22;-1.00;99.90
12568;DHT22;6349;50.904;6.136;2023-01-29T07:19:23;-1.00;99.90
12568;DHT22;6349;50.904;6.136;2023-01-29T07:21:25;-1.10;99.90
12568;DHT22;6349;50.904;6.136;2023-01-29T07:23:26;-1.10;99.90
12568;DHT22;6349;50.904;6.136;2023-01-29T07:25:28;-1.20;99.90
12568;DHT22;6349;50.904;6.136;2023-01-29T07:27:30;-1.30;99.90
12568;DHT22;6349;50.904;6.136;2023-01-29T07:29:32;-1.20;99.90
12568;DHT22;6349;50.904;6.136;2023-01-29T07:31:33;-1.30;99.90
12568;DHT22;6349;50.904;6.136;2023-01-29T07:33:35;-1.20;99.90
12568;DHT22;6349;50.904;6.136;2023-01-29T07:35:40;-1.20;99.90
12568;DHT22;6349;50.904;6.136;2023-01-29T07:37:42;-1.20;99.90
12568;DHT22;6349;50.904;6.136;2023-01-29T07:39:44;-1.10;99.90
12568;DHT22;6349;50.904;6.136;2023-01-29T07:41:48;-1.10;99.90
12568;DHT22;6349;50.904;6.136;2023-01-29T07:43:50;-1.10;99.90
12568;DHT22;6349;50.904;6.136;2023-01-29T07:45:51;-1.10;99.90
12568;DHT22;6349;50.904;6.136;2023-01-29T07:47:54;-1.20;99.90
12568;DHT22;6349;50.904;6.136;2023-01-29T07:49:57;-1.20;99.90
12568;DHT22;6349;50.904;6.136;2023-01-29T07:51:59;-1.20;99.90
12568;DHT22;6349;50.904;6.136;2023-01-29T07:54:00;-1.20;99.90
12568;DHT22;6349;50.904;6.136;2023-01-29T07:56:02;-1.20;99.90
12568;DHT22;6349;50.904;6.136;2023-01-29T07:58:03;-1.20;99.90
12568;DHT22;6349;50.904;6.136;2023-01-29T08:00:05;-1.10;99.90
12568;DHT22;6349;50.904;6.136;2023-01-29T08:02:08;-1.10;99.90
12568;DHT22;6349;50.904;6.136;2023-01-29T08:04:11;-1.10;99.90
12568;DHT22;6349;50.904;6.136;2023-01-29T08:06:12;-1.10;99.90
12568;DHT22;6349;50.904;6.136;2023-01-29T08:08:14;-1.10;99.90
12568;DHT22;6349;50.904;6.136;2023-01-29T08:10:16;-1.10;99.90
12568;DHT22;6349;50.904;6.136;2023-01-29T08:12:17;-1.10;99.90
12568;DHT22;6349;50.904;6.136;2023-01-29T08:14:19;-1.20;99.90
12568;DHT22;6349;50.904;6.136;2023-01-29T08:16:20;-1.10;99.90
12568;DHT22;6349;50.904;6.136;2023-01-29T08:18:22;-1.10;99.90
12568;DHT22;6349;50.904;6.136;2023-01-29T08:20:24;-1.00;99.90
12568;DHT22;6349;50.904;6.136;2023-01-29T08:22:25;-1.00;99.90
12568;DHT22;6349;50.904;6.136;2023-01-29T08:24:27;-1.00;99.90
12568;DHT22;6349;50.904;6.136;2023-01-29T08:26:30;-0.90;99.90
12568;DHT22;6349;50.904;6.136;2023-01-29T08:28:31;-0.90;99.90
12568;DHT22;6349;50.904;6.136;2023-01-29T08:30:34;-0.90;99.90
12568;DHT22;6349;50.904;6.136;2023-01-29T08:32:35;-0.90;99.90
12568;DHT22;6349;50.904;6.136;2023-01-29T08:34:37;-0.80;99.90
12568;DHT22;6349;50.904;6.136;2023-01-29T08:36:41;-0.90;99.90
12568;DHT22;6349;50.904;6.136;2023-01-29T08:38:44;-0.80;99.90
12568;DHT22;6349;50.904;6.136;2023-01-29T08:40:45;-0.80;99.90
12568;DHT22;6349;50.904;6.136;2023-01-29T08:42:46;-0.80;99.90
12568;DHT22;6349;50.904;6.136;2023-01-29T08:44:48;-0.70;99.90
12568;DHT22;6349;50.904;6.136;2023-01-29T08:46:50;-0.80;99.90
12568;DHT22;6349;50.904;6.136;2023-01-29T08:48:51;-0.70;99.90
12568;DHT22;6349;50.904;6.136;2023-01-29T08:50:56;-0.70;99.90
12568;DHT22;6349;50.904;6.136;2023-01-29T08:52:59;-0.60;99.90
12568;DHT22;6349;50.904;6.136;2023-01-29T08:55:01;-0.60;99.90
12568;DHT22;6349;50.904;6.136;2023-01-29T08:57:03;-0.60;99.90
12568;DHT22;6349;50.904;6.136;2023-01-29T08:59:04;-0.50;99.90
12568;DHT22;6349;50.904;6.136;2023-01-29T09:01:09;-0.50;99.90
12568;DHT22;6349;50.904;6.136;2023-01-29T09:03:11;-0.40;99.90
12568;DHT22;6349;50.904;6.136;2023-01-29T09:05:13;-0.40;99.90
12568;DHT22;6349;50.904;6.136;2023-01-29T09:07:15;-0.40;99.90
12568;DHT22;6349;50.904;6.136;2023-01-29T09:09:17;-0.30;99.90
12568;DHT22;6349;50.904;6.136;2023-01-29T09:11:18;-0.30;99.90
12568;DHT22;6349;50.904;6.136;2023-01-29T09:13:20;-0.20;99.90
12568;DHT22;6349;50.904;6.136;2023-01-29T09:15:22;-0.20;99.90
12568;DHT22;6349;50.904;6.136;2023-01-29T09:17:24;-0.10;99.90
12568;DHT22;6349;50.904;6.136;2023-01-29T09:19:25;-0.10;99.90
12568;DHT22;6349;50.904;6.136;2023-01-29T09:21:27;-0.10;99.90
12568;DHT22;6349;50.904;6.136;2023-01-29T09:23:29;-0.20;99.90
12568;DHT22;6349;50.904;6.136;2023-01-29T09:25:31;-0.10;99.90
12568;DHT22;6349;50.904;6.136;2023-01-29T09:27:33;-0.10;99.90
12568;DHT22;6349;50.904;6.136;2023-01-29T09:29:34;-0.10;99.90
12568;DHT22;6349;50.904;6.136;2023-01-29T09:31:36;-0.10;99.90
12568;DHT22;6349;50.904;6.136;2023-01-29T09:33:38;0.00;99.90
12568;DHT22;6349;50.904;6.136;2023-01-29T09:35:41;0.00;99.90
12568;DHT22;6349;50.904;6.136;2023-01-29T09:37:47;0.00;99.90
12568;DHT22;6349;50.904;6.136;2023-01-29T09:39:49;0.10;99.90
12568;DHT22;6349;50.904;6.136;2023-01-29T09:42:20;0.00;99.90
12568;DHT22;6349;50.904;6.136;2023-01-29T09:46:53;0.00;99.90
12568;DHT22;6349;50.904;6.136;2023-01-29T09:49:03;0.10;99.90
12568;DHT22;6349;50.904;6.136;2023-01-29T09:51:14;0.10;99.90
12568;DHT22;6349;50.904;6.136;2023-01-29T09:53:39;0.10;99.90
12568;DHT22;6349;50.904;6.136;2023-01-29T09:58:28;0.20;99.90
12568;DHT22;6349;50.904;6.136;2023-01-29T10:00:46;0.20;99.90
12568;DHT22;6349;50.904;6.136;2023-01-29T10:03:09;0.30;99.90
12568;DHT22;6349;50.904;6.136;2023-01-29T10:08:04;0.40;99.90
12568;DHT22;6349;50.904;6.136;2023-01-29T10:10:25;0.40;99.90
12568;DHT22;6349;50.904;6.136;2023-01-29T10:12:56;0.50;99.90
12568;DHT22;6349;50.904;6.136;2023-01-29T10:15:23;0.50;99.90
12568;DHT22;6349;50.904;6.136;2023-01-29T10:20:33;0.60;99.90
12568;DHT22;6349;50.904;6.136;2023-01-29T10:22:56;0.70;99.90
12568;DHT22;6349;50.904;6.136;2023-01-29T10:25:04;0.70;99.90
12568;DHT22;6349;50.904;6.136;2023-01-29T10:27:15;0.80;99.90
12568;DHT22;6349;50.904;6.136;2023-01-29T10:29:19;0.80;99.90
12568;DHT22;6349;50.904;6.136;2023-01-29T10:31:28;0.90;99.90
12568;DHT22;6349;50.904;6.136;2023-01-29T10:33:39;0.90;99.90
12568;DHT22;6349;50.904;6.136;2023-01-29T10:35:45;0.80;99.90
12568;DHT22;6349;50.904;6.136;2023-01-29T10:37:53;1.00;99.90
12568;DHT22;6349;50.904;6.136;2023-01-29T10:39:56;0.90;99.90
12568;DHT22;6349;50.904;6.136;2023-01-29T10:57:24;1.20;99.90
12568;DHT22;6349;50.904;6.136;2023-01-29T11:00:11;1.30;99.90
12568;DHT22;6349;50.904;6.136;2023-01-29T11:02:00;1.30;99.90
12568;DHT22;6349;50.904;6.136;2023-01-29T11:04:05;1.30;99.90
12568;DHT22;6349;50.904;6.136;2023-01-29T11:06:29;1.30;99.90
12568;DHT22;6349;50.904;6.136;2023-01-29T11:11:16;1.40;99.90
12568;DHT22;6349;50.904;6.136;2023-01-29T11:13:18;1.40;99.90
12568;DHT22;6349;50.904;6.136;2023-01-29T11:15:25;1.40;99.90
12568;DHT22;6349;50.904;6.136;2023-01-29T11:17:28;1.40;99.90
12568;DHT22;6349;50.904;6.136;2023-01-29T11:19:47;1.40;99.90
12568;DHT22;6349;50.904;6.136;2023-01-29T11:21:57;1.40;99.90
12568;DHT22;6349;50.904;6.136;2023-01-29T11:24:10;1.50;99.90
12568;DHT22;6349;50.904;6.136;2023-01-29T11:26:15;1.50;99.90
12568;DHT22;6349;50.904;6.136;2023-01-29T11:28:34;1.50;99.90
12568;DHT22;6349;50.904;6.136;2023-01-29T11:30:37;1.50;99.90
12568;DHT22;6349;50.904;6.136;2023-01-29T11:32:38;1.40;99.90
12568;DHT22;6349;50.904;6.136;2023-01-29T11:35:04;1.50;99.90
12568;DHT22;6349;50.904;6.136;2023-01-29T11:37:17;1.40;99.90
12568;DHT22;6349;50.904;6.136;2023-01-29T11:39:20;1.40;99.90
12568;DHT22;6349;50.904;6.136;2023-01-29T11:41:21;1.30;99.90
12568;DHT22;6349;50.904;6.136;2023-01-29T11:45:38;1.40;99.90
12568;DHT22;6349;50.904;6.136;2023-01-29T11:47:39;1.40;99.90
12568;DHT22;6349;50.904;6.136;2023-01-29T11:49:45;1.40;99.90
12568;DHT22;6349;50.904;6.136;2023-01-29T11:51:51;1.40;99.90
12568;DHT22;6349;50.904;6.136;2023-01-29T11:53:58;1.50;99.90
12568;DHT22;6349;50.904;6.136;2023-01-29T11:56:02;1.50;99.90
12568;DHT22;6349;50.904;6.136;2023-01-29T11:58:15;1.50;99.90
12568;DHT22;6349;50.904;6.136;2023-01-29T12:00:23;1.50;99.90
12568;DHT22;6349;50.904;6.136;2023-01-29T12:02:36;1.50;99.90
12568;DHT22;6349;50.904;6.136;2023-01-29T12:04:38;1.50;99.90
12568;DHT22;6349;50.904;6.136;2023-01-29T12:06:43;1.50;99.90
12568;DHT22;6349;50.904;6.136;2023-01-29T12:08:57;1.50;99.90
12568;DHT22;6349;50.904;6.136;2023-01-29T12:11:08;1.50;99.90
12568;DHT22;6349;50.904;6.136;2023-01-29T12:15:23;1.50;99.90
12568;DHT22;6349;50.904;6.136;2023-01-29T12:17:26;1.50;99.90
12568;DHT22;6349;50.904;6.136;2023-01-29T12:19:50;1.50;99.90
12568;DHT22;6349;50.904;6.136;2023-01-29T12:22:04;1.50;99.90
12568;DHT22;6349;50.904;6.136;2023-01-29T12:24:22;1.50;99.90
12568;DHT22;6349;50.904;6.136;2023-01-29T12:26:45;1.60;99.90
12568;DHT22;6349;50.904;6.136;2023-01-29T12:31:31;1.60;99.90
12568;DHT22;6349;50.904;6.136;2023-01-29T12:33:47;1.60;99.90
12568;DHT22;6349;50.904;6.136;2023-01-29T12:35:55;1.70;99.90
12568;DHT22;6349;50.904;6.136;2023-01-29T12:38:08;1.70;99.90
12568;DHT22;6349;50.904;6.136;2023-01-29T12:40:17;1.70;99.90
12568;DHT22;6349;50.904;6.136;2023-01-29T12:42:21;1.70;99.90
12568;DHT22;6349;50.904;6.136;2023-01-29T12:44:32;1.70;99.90
12568;DHT22;6349;50.904;6.136;2023-01-29T12:46:40;1.80;99.90
12568;DHT22;6349;50.904;6.136;2023-01-29T12:48:44;1.90;99.90
12568;DHT22;6349;50.904;6.136;2023-01-29T12:50:48;1.90;99.90
12568;DHT22;6349;50.904;6.136;2023-01-29T12:53:11;2.00;99.90
12568;DHT22;6349;50.904;6.136;2023-01-29T12:55:33;2.00;99.90
12568;DHT22;6349;50.904;6.136;2023-01-29T12:59:57;2.00;99.90
12568;DHT22;6349;50.904;6.136;2023-01-29T13:02:26;2.10;99.90
12568;DHT22;6349;50.904;6.136;2023-01-29T13:04:39;2.10;99.90
12568;DHT22;6349;50.904;6.136;2023-01-29T13:06:53;2.20;99.90
12568;DHT22;6349;50.904;6.136;2023-01-29T13:08:59;2.20;99.90
12568;DHT22;6349;50.904;6.136;2023-01-29T13:11:07;2.20;99.90
12568;DHT22;6349;50.904;6.136;2023-01-29T13:13:18;2.20;99.90
12568;DHT22;6349;50.904;6.136;2023-01-29T13:15:37;2.20;99.90
12568;DHT22;6349;50.904;6.136;2023-01-29T13:17:46;2.20;99.90
12568;DHT22;6349;50.904;6.136;2023-01-29T13:19:56;2.30;99.90
12568;DHT22;6349;50.904;6.136;2023-01-29T13:22:05;2.30;99.90
12568;DHT22;6349;50.904;6.136;2023-01-29T13:24:16;2.30;99.90
12568;DHT22;6349;50.904;6.136;2023-01-29T13:26:20;2.30;99.90
12568;DHT22;6349;50.904;6.136;2023-01-29T13:28:27;2.30;99.90
12568;DHT22;6349;50.904;6.136;2023-01-29T13:30:33;2.30;99.90
12568;DHT22;6349;50.904;6.136;2023-01-29T13:32:36;2.40;99.90
12568;DHT22;6349;50.904;6.136;2023-01-29T13:34:44;2.30;99.90
12568;DHT22;6349;50.904;6.136;2023-01-29T13:36:49;2.30;99.90
12568;DHT22;6349;50.904;6.136;2023-01-29T13:38:59;2.40;99.90
12568;DHT22;6349;50.904;6.136;2023-01-29T13:41:04;2.40;99.90
12568;DHT22;6349;50.904;6.136;2023-01-29T13:43:21;2.40;99.90
12568;DHT22;6349;50.904;6.136;2023-01-29T13:45:43;2.40;99.90
12568;DHT22;6349;50.904;6.136;2023-01-29T13:47:51;2.40;99.90
12568;DHT22;6349;50.904;6.136;2023-01-29T13:49:56;2.40;99.90
12568;DHT22;6349;50.904;6.136;2023-01-29T13:54:51;2.50;99.90
12568;DHT22;6349;50.904;6.136;2023-01-29T13:57:00;2.50;99.90
12568;DHT22;6349;50.904;6.136;2023-01-29T13:59:03;2.40;99.90
12568;DHT22;6349;50.904;6.136;2023-01-29T14:01:05;2.50;99.90
12568;DHT22;6349;50.904;6.136;2023-01-29T14:10:17;2.50;99.90
12568;DHT22;6349;50.904;6.136;2023-01-29T14:17:01;2.50;99.90
12568;DHT22;6349;50.904;6.136;2023-01-29T14:19:04;2.40;99.90
12568;DHT22;6349;50.904;6.136;2023-01-29T14:21:22;2.40;99.90
12568;DHT22;6349;50.904;6.136;2023-01-29T14:23:50;2.40;99.90
12568;DHT22;6349;50.904;6.136;2023-01-29T14:25:53;2.40;99.90
12568;DHT22;6349;50.904;6.136;2023-01-29T14:27:55;2.40;99.90
12568;DHT22;6349;50.904;6.136;2023-01-29T14:29:59;2.40;99.90
12568;DHT22;6349;50.904;6.136;2023-01-29T14:32:17;2.40;99.90
12568;DHT22;6349;50.904;6.136;2023-01-29T14:36:40;2.40;99.90
12568;DHT22;6349;50.904;6.136;2023-01-29T14:38:48;2.50;99.90
12568;DHT22;6349;50.904;6.136;2023-01-29T14:40:50;2.50;99.90
12568;DHT22;6349;50.904;6.136;2023-01-29T14:43:05;2.50;99.90
12568;DHT22;6349;50.904;6.136;2023-01-29T14:45:23;2.50;99.90
12568;DHT22;6349;50.904;6.136;2023-01-29T14:49:55;2.40;99.90
12568;DHT22;6349;50.904;6.136;2023-01-29T14:51:59;2.30;99.90
12568;DHT22;6349;50.904;6.136;2023-01-29T14:54:15;2.30;99.90
12568;DHT22;6349;50.904;6.136;2023-01-29T14:56:47;2.30;99.90
12568;DHT22;6349;50.904;6.136;2023-01-29T14:59:01;2.20;99.90
12568;DHT22;6349;50.904;6.136;2023-01-29T15:01:22;2.20;99.90
12568;DHT22;6349;50.904;6.136;2023-01-29T15:05:53;2.20;99.90
12568;DHT22;6349;50.904;6.136;2023-01-29T15:08:05;2.30;99.90
12568;DHT22;6349;50.904;6.136;2023-01-29T15:10:44;2.20;99.90
12568;DHT22;6349;50.904;6.136;2023-01-29T15:15:19;2.20;99.90
12568;DHT22;6349;50.904;6.136;2023-01-29T15:17:31;2.20;99.90